Time;durP1;ratioP1;P1;durP2;ratioP2;P2;SDS_P1;SDS_P2;PMS_P1;PMS_P2;Temp;Humidity;BMP_temperature;BMP_pressure;BME280_temperature;BME280_humidity;BME280_pressure;Samples;Min_cycle;Max_cycle;Signal;HPM_P1;HPM_P2
2021/03/23 00:01:28;;;;;;;21.60;9.30;;;5.50;99.90;;;;;;4996835;28;20070;-69
2021/03/23 00:03:54;;;;;;;22.83;10.65;;;5.50;99.90;;;;;;4996723;28;20125;-69
2021/03/23 00:06:23;;;;;;;22.63;10.40;;;5.50;99.90;;;;;;4997347;28;20463;-69
2021/03/23 00:09:04;;;;;;;25.20;10.73;;;5.50;99.90;;;;;;4997575;28;20551;-69
2021/03/23 00:11:32;;;;;;;29.98;11.27;;;5.50;99.90;;;;;;4997532;28;20068;-69
2021/03/23 00:14:00;;;;;;;24.88;10.27;;;5.50;99.90;;;;;;4996983;28;20030;-69
2021/03/23 00:16:31;;;;;;;25.20;9.02;;;5.50;99.90;;;;;;4996947;28;20180;-69
2021/03/23 00:18:58;;;;;;;28.15;11.32;;;5.50;99.90;;;;;;4996730;28;20156;-69
2021/03/23 00:21:24;;;;;;;19.13;8.82;;;5.60;99.90;;;;;;4994571;28;20034;-69
2021/03/23 00:23:50;;;;;;;19.85;8.75;;;5.60;99.90;;;;;;4998831;28;20064;-69
2021/03/23 00:26:18;;;;;;;26.65;9.00;;;5.60;99.90;;;;;;5000213;28;20071;-69
2021/03/23 00:28:48;;;;;;;28.15;8.93;;;5.50;99.90;;;;;;5000219;28;20030;-69
2021/03/23 00:31:19;;;;;;;26.25;9.82;;;5.60;99.90;;;;;;5001009;28;20029;-69
2021/03/23 00:33:45;;;;;;;29.50;9.23;;;5.50;99.90;;;;;;5000264;28;20037;-69
2021/03/23 00:36:15;;;;;;;22.67;8.48;;;5.60;99.90;;;;;;4999475;28;20488;-69
2021/03/23 00:38:41;;;;;;;25.60;10.23;;;5.60;99.90;;;;;;5000508;28;20101;-69
2021/03/23 00:41:08;;;;;;;26.95;9.23;;;5.60;99.90;;;;;;5000339;28;20103;-69
2021/03/23 00:43:38;;;;;;;21.00;8.50;;;5.60;99.90;;;;;;5000551;28;20117;-69
2021/03/23 00:46:04;;;;;;;21.15;8.35;;;5.60;99.90;;;;;;5000645;28;20037;-69
2021/03/23 00:48:29;;;;;;;18.55;7.53;;;5.50;99.90;;;;;;4999707;28;20041;-69
2021/03/23 00:50:55;;;;;;;23.55;8.18;;;5.60;99.90;;;;;;5000089;28;20074;-69
2021/03/23 00:53:21;;;;;;;22.00;7.10;;;5.50;99.90;;;;;;4999343;28;20083;-69
2021/03/23 00:55:47;;;;;;;15.07;7.15;;;5.60;99.90;;;;;;4999970;28;20351;-69
2021/03/23 00:58:13;;;;;;;14.50;6.97;;;5.60;99.90;;;;;;4999597;28;20382;-69
2021/03/23 01:00:39;;;;;;;23.63;6.88;;;5.60;99.90;;;;;;5000021;28;20735;-69
2021/03/23 01:03:05;;;;;;;18.42;7.75;;;5.60;99.90;;;;;;4997485;28;20040;-69
2021/03/23 01:05:34;;;;;;;19.85;7.38;;;5.60;99.90;;;;;;4998031;28;20084;-69
2021/03/23 01:08:00;;;;;;;20.30;7.43;;;5.60;99.90;;;;;;4998586;28;20029;-69
2021/03/23 01:10:27;;;;;;;19.42;6.85;;;5.60;99.90;;;;;;4999627;28;20405;-69
2021/03/23 01:12:54;;;;;;;26.15;7.07;;;5.60;99.90;;;;;;4999608;28;20025;-69
2021/03/23 01:15:23;;;;;;;18.27;6.30;;;5.60;99.90;;;;;;4999052;28;20034;-69
2021/03/23 01:17:49;;;;;;;23.50;6.57;;;5.60;99.90;;;;;;4999298;28;20033;-69
2021/03/23 01:20:18;;;;;;;21.17;6.88;;;5.60;99.90;;;;;;4999189;28;20472;-69
2021/03/23 01:22:44;;;;;;;17.25;7.05;;;5.60;99.90;;;;;;4999239;28;20439;-69
2021/03/23 01:25:10;;;;;;;25.27;7.20;;;5.60;99.90;;;;;;5000407;28;20153;-69
2021/03/23 01:27:36;;;;;;;18.02;6.25;;;5.60;99.90;;;;;;4998361;28;20030;-69
2021/03/23 01:30:05;;;;;;;14.02;6.03;;;5.60;99.90;;;;;;4999530;28;20068;-69
2021/03/23 01:32:30;;;;;;;20.67;6.65;;;5.70;99.90;;;;;;4999899;28;20041;-69
2021/03/23 01:34:56;;;;;;;25.10;6.82;;;5.70;99.90;;;;;;4998276;28;20032;-69
2021/03/23 01:37:22;;;;;;;19.48;6.20;;;5.60;99.90;;;;;;4999182;28;20041;-69
2021/03/23 01:39:48;;;;;;;18.85;6.45;;;5.70;99.90;;;;;;4999115;28;20022;-69
2021/03/23 01:42:16;;;;;;;21.73;6.63;;;5.60;99.90;;;;;;4999171;28;20061;-69
2021/03/23 01:44:44;;;;;;;22.25;6.45;;;5.60;99.90;;;;;;4997439;28;20025;-69
2021/03/23 01:47:10;;;;;;;17.33;5.07;;;5.60;99.90;;;;;;4998699;28;20128;-70
2021/03/23 01:49:46;;;;;;;24.80;5.47;;;5.70;99.90;;;;;;4998452;28;20018;-69
2021/03/23 01:52:17;;;;;;;20.38;6.03;;;5.60;99.90;;;;;;4999268;28;20401;-69
2021/03/23 01:55:05;;;;;;;15.55;4.63;;;5.70;99.90;;;;;;4998818;28;20030;-69
2021/03/23 01:57:34;;;;;;;19.30;5.45;;;5.70;99.90;;;;;;4998465;28;20049;-69
2021/03/23 02:00:00;;;;;;;19.25;5.10;;;5.70;99.90;;;;;;4999007;28;20060;-69
2021/03/23 02:02:28;;;;;;;12.30;4.32;;;5.70;99.90;;;;;;4997791;28;20435;-69
2021/03/23 02:04:54;;;;;;;16.90;4.80;;;5.60;99.90;;;;;;4998345;28;20037;-69
2021/03/23 02:07:21;;;;;;;14.95;4.22;;;5.60;99.90;;;;;;4997193;28;20065;-69
2021/03/23 02:09:50;;;;;;;18.88;4.30;;;5.70;99.90;;;;;;4998158;28;20473;-69
2021/03/23 02:12:21;;;;;;;14.27;4.93;;;5.70;99.90;;;;;;4998481;28;20025;-69
2021/03/23 02:14:47;;;;;;;15.35;4.57;;;5.70;99.90;;;;;;4997060;28;20034;-69
2021/03/23 02:17:30;;;;;;;26.92;5.38;;;5.70;99.90;;;;;;4998045;28;20061;-69
2021/03/23 02:19:59;;;;;;;14.85;4.35;;;5.70;99.90;;;;;;4996804;28;20099;-68
2021/03/23 02:22:34;;;;;;;14.15;5.40;;;5.70;99.90;;;;;;4996563;28;20038;-69
2021/03/23 02:25:03;;;;;;;12.88;4.70;;;5.80;99.90;;;;;;4998431;28;20033;-69
2021/03/23 02:27:29;;;;;;;18.75;5.22;;;5.70;99.90;;;;;;4998846;28;20428;-69
2021/03/23 02:30:00;;;;;;;10.07;4.03;;;5.70;99.90;;;;;;4998397;28;20373;-69
2021/03/23 02:32:25;;;;;;;;;;;5.70;99.90;;;;;;4998317;28;20056;-68
2021/03/23 02:34:51;;;;;;;17.05;4.00;;;5.70;99.90;;;;;;4999001;28;20320;-69
2021/03/23 02:37:18;;;;;;;15.07;3.88;;;5.80;99.90;;;;;;4997631;28;20045;-69
2021/03/23 02:39:44;;;;;;;13.80;4.55;;;5.70;99.90;;;;;;4998547;28;20034;-68
2021/03/23 02:42:11;;;;;;;13.07;3.80;;;5.70;99.90;;;;;;4997980;28;20036;-69
2021/03/23 02:44:46;;;;;;;16.02;4.90;;;5.70;99.90;;;;;;4998004;28;20388;-69
2021/03/23 02:47:13;;;;;;;10.60;4.35;;;5.70;99.90;;;;;;4997313;28;20368;-69
2021/03/23 02:49:40;;;;;;;17.90;4.80;;;5.70;99.90;;;;;;4998388;28;20064;-69
2021/03/23 02:52:07;;;;;;;13.98;4.28;;;5.70;99.90;;;;;;4994859;28;20037;-69
2021/03/23 02:54:33;;;;;;;11.02;4.25;;;5.70;99.90;;;;;;4998418;28;20021;-69
2021/03/23 02:56:59;;;;;;;17.65;5.57;;;5.70;99.90;;;;;;4997333;28;20073;-69
2021/03/23 02:59:25;;;;;;;14.85;4.20;;;5.70;99.90;;;;;;4997896;28;20084;-69
2021/03/23 03:01:50;;;;;;;15.63;5.15;;;5.70;99.90;;;;;;4996364;28;20044;-69
2021/03/23 03:04:16;;;;;;;11.60;4.40;;;5.70;99.90;;;;;;4995561;28;20448;-68
2021/03/23 03:06:42;;;;;;;12.00;4.80;;;5.70;99.90;;;;;;4995684;28;20034;-69
2021/03/23 03:09:08;;;;;;;12.85;4.60;;;5.70;99.90;;;;;;4996892;28;20481;-69
2021/03/23 03:11:34;;;;;;;14.10;4.22;;;5.70;99.90;;;;;;4997772;28;20030;-69
2021/03/23 03:14:00;;;;;;;14.68;4.55;;;5.80;99.90;;;;;;4997975;28;20037;-69
2021/03/23 03:16:26;;;;;;;17.38;4.25;;;5.80;99.90;;;;;;4997637;28;20041;-69
2021/03/23 03:18:52;;;;;;;22.15;5.05;;;5.80;99.90;;;;;;4996970;28;20399;-69
2021/03/23 03:21:18;;;;;;;16.95;4.80;;;5.80;99.90;;;;;;4998023;28;20033;-69
2021/03/23 03:23:44;;;;;;;15.00;4.30;;;5.80;99.90;;;;;;4997623;28;20076;-69
2021/03/23 03:26:10;;;;;;;16.70;3.92;;;5.80;99.90;;;;;;4996983;28;20157;-69
2021/03/23 03:28:36;;;;;;;21.45;4.22;;;5.80;99.90;;;;;;4997210;28;20476;-69
2021/03/23 03:31:03;;;;;;;11.05;4.18;;;5.80;99.90;;;;;;4997765;28;20924;-69
2021/03/23 03:33:28;;;;;;;24.70;4.28;;;5.90;99.90;;;;;;4998025;28;20033;-69
2021/03/23 03:35:55;;;;;;;13.75;3.97;;;5.80;99.90;;;;;;4997065;28;20646;-69
2021/03/23 03:38:22;;;;;;;13.23;3.58;;;5.80;99.90;;;;;;4997518;28;20034;-69
2021/03/23 03:40:57;;;;;;;13.18;3.70;;;5.90;99.90;;;;;;4995683;28;20481;-69
2021/03/23 03:43:27;;;;;;;14.55;4.10;;;5.90;99.90;;;;;;4996567;28;20489;-69
2021/03/23 03:45:54;;;;;;;14.70;5.10;;;5.90;99.90;;;;;;4996786;28;20519;-69
2021/03/23 03:48:20;;;;;;;12.05;4.05;;;5.90;99.90;;;;;;4997901;28;20042;-69
2021/03/23 03:50:45;;;;;;;16.17;4.43;;;5.90;99.90;;;;;;4996876;28;20149;-69
2021/03/23 03:53:12;;;;;;;18.75;5.10;;;5.80;99.90;;;;;;4997116;28;20146;-69
2021/03/23 03:55:42;;;;;;;20.90;5.40;;;5.90;99.90;;;;;;4997960;28;20030;-69
2021/03/23 03:58:08;;;;;;;15.52;4.25;;;5.90;99.90;;;;;;4997564;28;20037;-69
2021/03/23 04:00:35;;;;;;;18.40;5.18;;;5.90;99.90;;;;;;5000341;28;20472;-69
2021/03/23 04:03:05;;;;;;;19.77;5.07;;;5.90;99.90;;;;;;5001300;28;20034;-69
2021/03/23 04:05:37;;;;;;;14.30;4.50;;;5.90;99.90;;;;;;5000306;28;20018;-69
2021/03/23 04:08:04;;;;;;;15.65;4.60;;;5.90;99.90;;;;;;5001757;28;20039;-69
2021/03/23 04:10:30;;;;;;;16.27;4.95;;;5.90;99.90;;;;;;5000254;28;20071;-69
2021/03/23 04:12:56;;;;;;;15.18;3.85;;;5.90;99.90;;;;;;5000543;28;20045;-69
2021/03/23 04:15:32;;;;;;;22.23;4.30;;;5.90;99.90;;;;;;5001155;28;20439;-69
2021/03/23 04:17:58;;;;;;;22.70;5.70;;;5.90;99.90;;;;;;5000551;28;20021;-68
2021/03/23 04:20:24;;;;;;;21.42;3.92;;;5.90;99.90;;;;;;5000449;28;20054;-69
2021/03/23 04:22:51;;;;;;;18.50;4.22;;;5.80;99.90;;;;;;5000898;28;20030;-69
2021/03/23 04:25:20;;;;;;;16.67;3.63;;;5.80;99.90;;;;;;4999914;28;20436;-69
2021/03/23 04:27:46;;;;;;;20.98;3.65;;;5.80;99.90;;;;;;5000429;28;20030;-69
2021/03/23 04:30:14;;;;;;;21.13;4.38;;;5.80;99.90;;;;;;5000576;28;20138;-69
2021/03/23 04:32:40;;;;;;;12.95;3.05;;;5.80;99.90;;;;;;4999969;28;20022;-69
2021/03/23 04:35:09;;;;;;;19.40;3.67;;;5.80;99.90;;;;;;5000508;28;20033;-69
2021/03/23 04:37:35;;;;;;;18.58;3.03;;;5.80;99.90;;;;;;5000148;28;20138;-69
2021/03/23 04:40:03;;;;;;;16.92;3.53;;;5.80;99.90;;;;;;4998758;28;20029;-69
2021/03/23 04:42:29;;;;;;;14.48;3.70;;;5.80;99.90;;;;;;5000382;28;20597;-69
2021/03/23 04:44:55;;;;;;;13.00;3.63;;;5.80;99.90;;;;;;4999711;28;20105;-68
2021/03/23 04:47:20;;;;;;;17.80;3.45;;;5.80;99.90;;;;;;5000363;28;20038;-69
2021/03/23 04:49:46;;;;;;;17.15;4.05;;;5.80;99.90;;;;;;5001000;28;20034;-69
2021/03/23 04:52:12;;;;;;;11.63;3.58;;;5.80;99.90;;;;;;5000399;28;20022;-69
2021/03/23 04:54:38;;;;;;;21.00;3.85;;;5.80;99.90;;;;;;5000551;28;20116;-69
2021/03/23 04:57:04;;;;;;;19.25;4.15;;;5.80;99.90;;;;;;5000903;28;21053;-69
2021/03/23 04:59:30;;;;;;;20.10;3.38;;;5.80;99.90;;;;;;5000671;28;20574;-69
2021/03/23 05:01:56;;;;;;;19.38;3.42;;;5.80;99.90;;;;;;5002481;28;20041;-69
2021/03/23 05:04:22;;;;;;;19.15;4.13;;;5.80;99.90;;;;;;5001116;28;20022;-68
2021/03/23 05:06:48;;;;;;;13.93;3.92;;;5.80;99.90;;;;;;5002451;28;20030;-69
2021/03/23 05:09:14;;;;;;;13.00;3.83;;;5.80;99.90;;;;;;5000732;28;20060;-69
2021/03/23 05:11:39;;;;;;;11.23;3.40;;;5.80;99.90;;;;;;5000537;28;20040;-69
2021/03/23 05:14:07;;;;;;;14.45;3.80;;;5.70;99.90;;;;;;5000047;28;20030;-69
2021/03/23 05:16:34;;;;;;;19.95;4.13;;;5.70;99.90;;;;;;4998965;28;20050;-69
2021/03/23 05:19:00;;;;;;;16.77;4.07;;;5.80;99.90;;;;;;4998751;28;20651;-68
2021/03/23 05:21:26;;;;;;;20.67;3.65;;;5.70;99.90;;;;;;4999635;28;20040;-69
2021/03/23 05:23:56;;;;;;;20.95;4.07;;;5.70;99.90;;;;;;4997315;28;20030;-69
2021/03/23 05:26:21;;;;;;;16.15;3.63;;;5.80;99.90;;;;;;4999118;28;20189;-69
2021/03/23 05:28:47;;;;;;;18.63;3.60;;;5.80;99.90;;;;;;4999987;28;20030;-69
2021/03/23 05:31:15;;;;;;;16.50;3.95;;;5.80;99.90;;;;;;4998950;28;20472;-69
2021/03/23 05:33:42;;;;;;;17.52;3.88;;;5.80;99.90;;;;;;4998449;28;20156;-69
2021/03/23 05:36:09;;;;;;;12.35;3.35;;;5.80;99.90;;;;;;4999361;28;20404;-69
2021/03/23 05:38:35;;;;;;;18.30;4.43;;;5.80;99.90;;;;;;4998457;28;20053;-69
2021/03/23 05:41:41;;;;;;;10.55;3.63;;;5.80;99.90;;;;;;4999209;28;20545;-69
2021/03/23 05:44:35;;;;;;;14.70;3.22;;;5.80;99.90;;;;;;5001329;28;20038;-69
2021/03/23 05:47:01;;;;;;;10.93;3.20;;;5.90;99.90;;;;;;4997223;28;20025;-69
2021/03/23 05:50:03;;;;;;;15.05;3.45;;;5.80;99.90;;;;;;4999268;28;20393;-68
2021/03/23 05:52:38;;;;;;;15.98;3.90;;;5.90;99.90;;;;;;4997933;28;20096;-69
2021/03/23 05:55:25;;;;;;;18.70;4.93;;;5.90;99.90;;;;;;4996653;28;20111;-69
2021/03/23 05:57:52;;;;;;;10.77;3.35;;;5.90;99.90;;;;;;4998089;28;20398;-69
2021/03/23 06:00:29;;;;;;;11.15;2.97;;;5.80;99.90;;;;;;4997645;28;20033;-69
2021/03/23 06:03:09;;;;;;;11.85;3.75;;;5.80;99.90;;;;;;4991973;28;20405;-69
2021/03/23 06:05:37;;;;;;;20.10;4.72;;;5.90;99.90;;;;;;4998859;28;20034;-69
2021/03/23 06:08:06;;;;;;;20.23;4.90;;;5.80;99.90;;;;;;4997641;28;20033;-69
2021/03/23 06:10:32;;;;;;;21.42;5.05;;;5.90;99.90;;;;;;4998605;28;20026;-69
2021/03/23 06:13:16;;;;;;;13.65;3.60;;;5.90;99.90;;;;;;4998667;28;20030;-69
2021/03/23 06:15:55;;;;;;;13.65;4.13;;;5.90;99.90;;;;;;4998536;28;20033;-69
2021/03/23 06:18:28;;;;;;;17.17;4.82;;;5.90;99.90;;;;;;4998449;28;20595;-69
2021/03/23 06:21:21;;;;;;;19.95;4.70;;;5.90;99.90;;;;;;4998202;28;20061;-68
2021/03/23 06:24:32;;;;;;;22.88;5.25;;;6.00;99.90;;;;;;4997310;28;20381;-70
2021/03/23 06:27:05;;;;;;;;;;;6.00;99.90;;;;;;4997230;28;20034;-69
2021/03/23 06:29:31;;;;;;;19.70;4.38;;;6.00;99.90;;;;;;4998647;28;19909;-69
2021/03/23 06:32:24;;;;;;;23.27;5.20;;;6.00;99.90;;;;;;4998203;28;20148;-69
2021/03/23 06:34:56;;;;;;;20.50;4.40;;;6.00;99.90;;;;;;4995917;28;20052;-69
2021/03/23 06:37:27;;;;;;;24.33;5.03;;;6.00;99.90;;;;;;4998364;28;20037;-69
2021/03/23 06:39:54;;;;;;;21.52;5.32;;;6.10;99.90;;;;;;4998021;28;20042;-69
2021/03/23 06:42:33;;;;;;;14.15;4.38;;;6.10;99.90;;;;;;4998284;28;20603;-69
2021/03/23 06:45:21;;;;;;;14.23;3.90;;;6.10;99.90;;;;;;4998090;28;20482;-69
2021/03/23 06:47:49;;;;;;;22.02;5.18;;;6.20;99.90;;;;;;4997636;28;20056;-69
2021/03/23 06:50:23;;;;;;;15.70;4.00;;;6.10;99.90;;;;;;4996782;28;20640;-69
2021/03/23 06:53:10;;;;;;;23.45;4.80;;;6.20;99.90;;;;;;4998479;28;20022;-68
2021/03/23 06:55:37;;;;;;;22.23;5.35;;;6.20;99.90;;;;;;4997347;28;20084;-69
2021/03/23 06:58:31;;;;;;;16.02;5.30;;;6.30;99.90;;;;;;4997687;28;20437;-69
2021/03/23 07:01:25;;;;;;;23.20;4.85;;;6.30;99.90;;;;;;4997932;28;20412;-69
2021/03/23 07:03:53;;;;;;;22.00;4.95;;;6.30;99.90;;;;;;4996759;28;20022;-69
2021/03/23 07:06:26;;;;;;;18.25;4.25;;;6.30;99.90;;;;;;4997679;28;20037;-69
2021/03/23 07:09:20;;;;;;;17.80;3.85;;;6.30;99.90;;;;;;4997130;28;20064;-69
2021/03/23 07:12:01;;;;;;;25.27;5.18;;;6.40;99.90;;;;;;4979973;28;20029;-69
2021/03/23 07:14:35;;;;;;;20.95;5.13;;;6.40;99.90;;;;;;4997498;28;20030;-69
2021/03/23 07:17:08;;;;;;;19.02;4.25;;;6.30;99.90;;;;;;4997742;28;20736;-69
2021/03/23 07:19:49;;;;;;;16.05;4.85;;;6.40;99.90;;;;;;4997380;28;20504;-69
2021/03/23 07:22:28;;;;;;;19.00;4.35;;;6.40;99.90;;;;;;4995408;28;20049;-69
2021/03/23 07:24:56;;;;;;;24.38;5.85;;;6.40;99.90;;;;;;4996272;28;20172;-69
2021/03/23 07:27:25;;;;;;;23.05;4.57;;;6.50;99.90;;;;;;4997579;28;20551;-69
2021/03/23 07:30:08;;;;;;;17.80;4.07;;;6.50;99.90;;;;;;4995664;28;20030;-69
2021/03/23 07:32:42;;;;;;;21.73;4.20;;;6.50;99.90;;;;;;4998876;28;20033;-69
2021/03/23 07:35:32;;;;;;;19.08;3.92;;;6.60;99.90;;;;;;5001884;28;20034;-69
2021/03/23 07:38:03;;;;;;;17.17;4.43;;;6.60;99.90;;;;;;5001352;28;20568;-69
2021/03/23 07:40:38;;;;;;;14.25;4.07;;;6.60;99.90;;;;;;5001374;28;20045;-69
2021/03/23 07:43:16;;;;;;;10.68;3.88;;;6.60;99.90;;;;;;5001078;28;20033;-69
2021/03/23 07:46:03;;;;;;;16.77;4.35;;;6.60;99.90;;;;;;5001852;28;20173;-69
2021/03/23 07:48:55;;;;;;;12.32;3.28;;;6.50;99.90;;;;;;5001156;28;20378;-69
2021/03/23 07:51:37;;;;;;;17.63;5.25;;;6.50;99.90;;;;;;5000605;28;20042;-69
2021/03/23 07:54:30;;;;;;;15.73;4.20;;;6.50;99.90;;;;;;5001078;28;20022;-69
2021/03/23 07:57:04;;;;;;;13.13;3.95;;;6.50;99.90;;;;;;5000774;28;20489;-69
2021/03/23 07:59:44;;;;;;;12.05;3.60;;;6.50;99.90;;;;;;5000554;28;20048;-69
2021/03/23 08:02:38;;;;;;;13.77;3.72;;;6.50;99.90;;;;;;5000281;28;20540;-69
2021/03/23 08:05:53;;;;;;;12.43;3.92;;;6.50;99.90;;;;;;5000865;28;20485;-69
2021/03/23 08:08:52;;;;;;;9.60;3.17;;;6.50;99.90;;;;;;4998216;28;20453;-69
2021/03/23 08:12:08;;;;;;;13.38;3.55;;;6.60;99.90;;;;;;4997731;28;20038;-69
2021/03/23 08:15:11;;;;;;;11.57;3.63;;;6.60;99.90;;;;;;4972261;28;20798;-69
2021/03/23 08:18:01;;;;;;;17.17;3.63;;;6.60;99.90;;;;;;4999915;28;20057;-68
2021/03/23 08:21:00;;;;;;;14.80;3.55;;;6.60;99.90;;;;;;5001373;28;20190;-69
2021/03/23 08:23:58;;;;;;;11.75;3.47;;;6.60;99.90;;;;;;4999679;28;20556;-69
2021/03/23 08:26:51;;;;;;;15.73;4.30;;;6.60;99.90;;;;;;5003847;28;20096;-69
2021/03/23 08:29:45;;;;;;;14.38;4.82;;;6.60;99.90;;;;;;5000653;28;20473;-69
2021/03/23 08:32:19;;;;;;;10.63;4.47;;;6.60;99.90;;;;;;5000506;28;20037;-70
2021/03/23 08:35:06;;;;;;;14.55;3.83;;;6.60;99.90;;;;;;5000504;28;20030;-69
2021/03/23 08:37:42;;;;;;;10.57;4.13;;;6.60;99.90;;;;;;4999185;28;20564;-69
2021/03/23 08:40:31;;;;;;;9.55;4.50;;;6.70;99.90;;;;;;4999879;28;20040;-69
2021/03/23 08:42:57;;;;;;;9.20;4.13;;;6.70;99.90;;;;;;5000222;28;20084;-69
2021/03/23 08:45:31;;;;;;;7.35;3.42;;;6.70;99.90;;;;;;4999489;28;20033;-69
2021/03/23 08:48:17;;;;;;;12.25;3.42;;;6.70;99.90;;;;;;5000225;28;20129;-69
2021/03/23 08:50:45;;;;;;;17.92;3.70;;;6.70;99.90;;;;;;4999714;28;20110;-69
2021/03/23 08:53:31;;;;;;;16.02;4.38;;;6.70;99.90;;;;;;4999973;28;20026;-69
2021/03/23 08:55:58;;;;;;;13.25;3.33;;;6.70;99.90;;;;;;4999497;28;20064;-69
2021/03/23 08:58:54;;;;;;;11.68;3.67;;;6.70;99.90;;;;;;5000051;28;20675;-69
2021/03/23 09:01:29;;;;;;;14.23;3.53;;;6.80;99.90;;;;;;4999709;28;20030;-69
2021/03/23 09:04:26;;;;;;;11.55;3.05;;;6.60;99.90;;;;;;4999201;28;20123;-69
2021/03/23 09:06:59;;;;;;;11.82;3.65;;;6.70;99.90;;;;;;5002291;28;20467;-69
2021/03/23 09:09:25;;;;;;;12.13;3.28;;;6.80;99.90;;;;;;4999516;28;20546;-69
2021/03/23 09:12:09;;;;;;;7.93;2.85;;;6.80;99.90;;;;;;4999749;28;20038;-69
2021/03/23 09:15:19;;;;;;;15.00;4.13;;;6.80;99.90;;;;;;4999711;28;20459;-69
2021/03/23 09:18:01;;;;;;;11.85;3.83;;;6.90;99.90;;;;;;4998677;28;20120;-69
2021/03/23 09:20:36;;;;;;;10.80;3.10;;;6.90;99.90;;;;;;4997849;28;20464;-69
2021/03/23 09:25:49;;;;;;;10.57;3.40;;;7.00;99.90;;;;;;4999287;28;20380;-69
2021/03/23 09:28:31;;;;;;;17.02;3.65;;;7.00;99.90;;;;;;4999215;28;20065;-69
2021/03/23 09:31:09;;;;;;;8.30;2.60;;;7.00;99.90;;;;;;4998655;28;20527;-69
2021/03/23 09:33:48;;;;;;;17.63;4.00;;;7.00;99.90;;;;;;4999436;28;20115;-69
2021/03/23 09:36:18;;;;;;;11.32;3.60;;;7.00;99.90;;;;;;4998644;28;20030;-69
2021/03/23 09:38:51;;;;;;;10.27;4.05;;;7.00;99.90;;;;;;4999193;28;20079;-69
2021/03/23 09:41:22;;;;;;;12.65;3.22;;;7.10;99.90;;;;;;4998763;28;20040;-69
2021/03/23 09:43:54;;;;;;;15.13;3.47;;;7.10;99.90;;;;;;4998894;28;20054;-69
2021/03/23 09:46:23;;;;;;;10.35;2.70;;;7.20;99.90;;;;;;4997559;28;20037;-69
2021/03/23 09:48:55;;;;;;;7.93;2.78;;;7.20;99.90;;;;;;4999468;28;20026;-69
2021/03/23 09:51:50;;;;;;;7.57;2.38;;;7.20;99.90;;;;;;4999028;28;20259;-69
2021/03/23 09:54:26;;;;;;;13.00;3.17;;;7.10;99.90;;;;;;4998824;28;20026;-69
2021/03/23 09:56:54;;;;;;;16.67;3.22;;;7.10;99.90;;;;;;4998086;28;20273;-69
2021/03/23 09:59:26;;;;;;;14.27;2.90;;;7.10;99.90;;;;;;4997442;28;20511;-69
2021/03/23 10:01:57;;;;;;;12.85;2.72;;;7.20;99.90;;;;;;4998045;28;20109;-69
2021/03/23 10:04:31;;;;;;;12.75;2.65;;;7.20;99.90;;;;;;4998695;28;20508;-69
2021/03/23 10:06:57;;;;;;;13.35;2.78;;;7.20;99.90;;;;;;4998496;28;20446;-69
2021/03/23 10:09:34;;;;;;;7.50;2.33;;;7.30;99.90;;;;;;4998485;28;20057;-69
2021/03/23 10:12:02;;;;;;;11.52;2.97;;;7.20;99.90;;;;;;4998681;28;20083;-69
2021/03/23 10:14:28;;;;;;;10.30;2.75;;;7.30;99.90;;;;;;4997259;28;20485;-69
2021/03/23 10:17:04;;;;;;;9.13;2.58;;;7.30;99.90;;;;;;4997609;28;20047;-69
2021/03/23 10:19:40;;;;;;;9.77;2.42;;;7.30;99.90;;;;;;4998149;28;20060;-69
2021/03/23 10:22:37;;;;;;;14.05;3.03;;;7.30;99.90;;;;;;4998450;28;20049;-69
2021/03/23 10:25:06;;;;;;;8.65;2.70;;;7.30;99.90;;;;;;4998458;28;20444;-69
2021/03/23 10:27:38;;;;;;;9.93;2.30;;;7.40;99.90;;;;;;4998956;28;20223;-69
2021/03/23 10:30:10;;;;;;;16.38;4.65;;;7.40;99.90;;;;;;4998441;28;20033;-69
2021/03/23 10:32:47;;;;;;;10.75;1.90;;;7.30;99.90;;;;;;4996832;28;20044;-70
2021/03/23 10:35:23;;;;;;;11.75;2.40;;;7.30;99.90;;;;;;4997981;28;20351;-69
2021/03/23 10:38:12;;;;;;;11.10;2.15;;;7.20;99.90;;;;;;4997639;28;20116;-69
2021/03/23 10:40:38;;;;;;;14.77;3.40;;;7.20;99.90;;;;;;4998278;28;20021;-69
2021/03/23 10:43:05;;;;;;;7.22;1.98;;;7.20;99.90;;;;;;4998435;28;20037;-69
2021/03/23 10:45:43;;;;;;;10.30;2.92;;;7.20;99.90;;;;;;4997600;28;20370;-69
2021/03/23 10:48:27;;;;;;;11.80;3.00;;;7.30;99.90;;;;;;4998143;28;20057;-69
2021/03/23 10:51:28;;;;;;;12.27;2.92;;;7.30;99.90;;;;;;4998093;28;20030;-69
2021/03/23 10:54:07;;;;;;;20.50;2.53;;;7.40;99.90;;;;;;4995782;28;20777;-69
2021/03/23 10:56:40;;;;;;;7.20;2.25;;;7.50;99.90;;;;;;4997735;28;20030;-69
2021/03/23 10:59:12;;;;;;;9.68;3.05;;;7.50;99.90;;;;;;4998155;28;20024;-69
2021/03/23 11:01:57;;;;;;;15.45;3.30;;;7.50;99.90;;;;;;4997753;28;20076;-70
2021/03/23 11:04:22;;;;;;;8.77;2.50;;;7.60;99.90;;;;;;4997735;28;20037;-70
2021/03/23 11:06:48;;;;;;;14.55;3.33;;;7.60;99.90;;;;;;4997110;28;20026;-69
2021/03/23 11:09:16;;;;;;;10.73;2.40;;;7.50;99.90;;;;;;4997119;28;20592;-69
2021/03/23 11:11:43;;;;;;;10.13;2.88;;;7.50;99.90;;;;;;4997197;28;20037;-69
2021/03/23 11:14:09;;;;;;;7.97;2.83;;;7.50;99.90;;;;;;4998140;28;20025;-69
2021/03/23 11:16:38;;;;;;;12.00;2.70;;;7.50;99.90;;;;;;4996801;28;20038;-69
2021/03/23 11:19:16;;;;;;;10.48;3.03;;;7.60;99.90;;;;;;4996253;28;20054;-70
2021/03/23 11:21:44;;;;;;;12.48;2.92;;;7.50;99.90;;;;;;4997925;28;20054;-69
2021/03/23 11:24:11;;;;;;;14.23;3.38;;;7.50;99.90;;;;;;4997345;28;20449;-69
2021/03/23 11:26:39;;;;;;;7.68;2.10;;;7.40;99.90;;;;;;4996978;28;20063;-70
2021/03/23 11:29:05;;;;;;;5.82;2.13;;;7.50;99.90;;;;;;4997723;28;20512;-70
2021/03/23 11:31:34;;;;;;;7.70;2.33;;;7.60;99.90;;;;;;4997453;28;20037;-69
2021/03/23 11:34:00;;;;;;;12.82;2.75;;;7.50;99.90;;;;;;4997431;28;20556;-69
2021/03/23 11:36:28;;;;;;;10.52;2.15;;;7.50;99.90;;;;;;4997336;28;20038;-69
2021/03/23 11:38:55;;;;;;;9.52;2.40;;;7.50;99.90;;;;;;4997403;28;20033;-70
2021/03/23 11:41:27;;;;;;;10.10;2.33;;;7.60;99.90;;;;;;4997704;28;20537;-69
2021/03/23 11:44:06;;;;;;;15.95;3.80;;;7.60;99.90;;;;;;4997316;28;20053;-69
2021/03/23 11:46:46;;;;;;;8.98;2.35;;;7.60;99.90;;;;;;4997085;28;20965;-70
2021/03/23 11:49:15;;;;;;;;;;;7.80;99.90;;;;;;4998440;28;20030;-69
2021/03/23 11:51:47;;;;;;;10.57;2.58;;;7.80;99.90;;;;;;4996941;28;20419;-70
2021/03/23 11:54:15;;;;;;;11.73;2.55;;;7.80;99.90;;;;;;4995636;28;20113;-69
2021/03/23 11:56:41;;;;;;;8.10;2.20;;;7.80;99.90;;;;;;4996790;28;20038;-69
2021/03/23 11:59:07;;;;;;;12.68;2.30;;;7.80;99.90;;;;;;4997578;28;20385;-69
2021/03/23 12:01:33;;;;;;;12.73;3.28;;;7.80;99.90;;;;;;4996471;28;20142;-69
2021/03/23 12:03:59;;;;;;;13.52;2.90;;;7.80;99.90;;;;;;4997442;28;20386;-69
2021/03/23 12:06:36;;;;;;;11.77;2.28;;;7.90;99.90;;;;;;4996992;28;20463;-70
2021/03/23 12:09:09;;;;;;;9.50;2.63;;;7.80;99.90;;;;;;4997497;28;20037;-69
2021/03/23 12:11:51;;;;;;;11.13;3.08;;;7.80;99.90;;;;;;4997150;28;20259;-70
2021/03/23 12:14:33;;;;;;;10.98;2.05;;;8.00;99.90;;;;;;4996967;28;20076;-70
2021/03/23 12:17:12;;;;;;;11.25;2.58;;;8.00;99.90;;;;;;4997263;28;20076;-69
2021/03/23 12:19:48;;;;;;;9.95;2.17;;;8.00;99.90;;;;;;4997940;28;20509;-69
2021/03/23 12:22:14;;;;;;;10.00;2.08;;;8.20;99.90;;;;;;5000667;28;20546;-70
2021/03/23 12:24:41;;;;;;;10.57;2.45;;;8.20;99.90;;;;;;5000930;28;20036;-69
2021/03/23 12:27:08;;;;;;;13.65;2.90;;;8.30;99.90;;;;;;5000191;28;20364;-69
2021/03/23 12:29:37;;;;;;;9.43;2.53;;;8.30;99.90;;;;;;5000244;28;20029;-70
2021/03/23 12:32:05;;;;;;;6.57;1.60;;;8.40;99.90;;;;;;5000014;28;20493;-70
2021/03/23 12:34:31;;;;;;;7.82;2.05;;;8.50;99.90;;;;;;5000150;28;20642;-69
2021/03/23 12:36:57;;;;;;;10.05;2.42;;;8.50;99.90;;;;;;5000488;28;20038;-69
2021/03/23 12:39:23;;;;;;;9.65;2.38;;;8.40;99.90;;;;;;5000993;28;20048;-69
2021/03/23 12:41:49;;;;;;;6.57;2.17;;;8.40;99.90;;;;;;5000253;28;20560;-70
2021/03/23 12:44:16;;;;;;;16.67;3.67;;;8.20;99.90;;;;;;4999849;28;20038;-70
2021/03/23 12:46:43;;;;;;;10.30;2.80;;;8.30;99.90;;;;;;5000461;28;20060;-70
2021/03/23 12:49:09;;;;;;;10.98;2.95;;;8.20;99.90;;;;;;4999408;28;20503;-70
2021/03/23 12:52:03;;;;;;;5.35;2.13;;;8.20;99.90;;;;;;5000913;28;20054;-70
2021/03/23 12:54:32;;;;;;;9.55;2.20;;;8.20;99.90;;;;;;5000593;28;20149;-70
2021/03/23 12:56:58;;;;;;;8.23;3.15;;;8.10;99.90;;;;;;4999778;28;20492;-70
2021/03/23 12:59:28;;;;;;;13.75;3.45;;;8.20;99.90;;;;;;4999893;28;20033;-70
2021/03/23 13:01:55;;;;;;;8.07;2.20;;;8.30;99.90;;;;;;5000091;28;20025;-70
2021/03/23 13:04:23;;;;;;;6.45;2.15;;;8.30;99.90;;;;;;4998808;28;20052;-69
2021/03/23 13:06:50;;;;;;;9.30;2.75;;;8.50;99.90;;;;;;4999956;28;20037;-70
2021/03/23 13:09:17;;;;;;;8.07;2.60;;;8.40;99.90;;;;;;5000251;28;20495;-70
2021/03/23 13:11:47;;;;;;;15.13;2.53;;;8.50;99.90;;;;;;4999919;28;20494;-69
2021/03/23 13:14:25;;;;;;;9.55;2.60;;;8.50;99.90;;;;;;4999499;28;20029;-69
2021/03/23 13:16:52;;;;;;;8.35;2.63;;;8.40;99.90;;;;;;4999621;28;20049;-70
2021/03/23 13:19:20;;;;;;;5.07;2.22;;;8.40;99.90;;;;;;4999364;28;20049;-69